createdAt,value
2018-12-11T00:01:34.607Z,2.00
2018-12-11T00:03:42.709Z,2.17
2018-12-11T00:05:49.509Z,2.20
2018-12-11T00:07:55.726Z,2.00
2018-12-11T00:10:02.224Z,2.00
2018-12-11T00:12:08.602Z,2.50
2018-12-11T00:14:14.729Z,1.83
2018-12-11T00:16:21.494Z,1.90
2018-12-11T00:18:33.765Z,1.70
2018-12-11T00:20:40.714Z,1.70
2018-12-11T00:22:47.331Z,2.00
2018-12-11T00:24:53.568Z,2.10
2018-12-11T00:27:00.623Z,2.10
2018-12-11T00:29:12.358Z,1.70
2018-12-11T00:31:18.596Z,1.60
2018-12-11T00:35:41.879Z,1.80
2018-12-11T00:37:47.973Z,1.80
2018-12-11T00:39:54.622Z,1.73
2018-12-11T00:42:01.361Z,2.00
2018-12-11T00:44:08.710Z,1.70
2018-12-11T00:46:15.473Z,2.07
2018-12-11T00:48:21.579Z,1.93
2018-12-11T00:50:27.801Z,2.43
2018-12-11T00:52:34.174Z,2.53
2018-12-11T00:54:40.343Z,2.70
2018-12-11T00:56:50.592Z,2.60
2018-12-11T00:59:00.195Z,2.13
2018-12-11T01:01:07.288Z,2.30
2018-12-11T01:03:15.043Z,2.40
2018-12-11T01:05:21.221Z,2.50
2018-12-11T01:07:27.364Z,1.90
2018-12-11T01:09:33.481Z,2.20
2018-12-11T01:11:39.747Z,2.50
2018-12-11T01:13:46.035Z,2.70
2018-12-11T01:15:53.329Z,2.50
2018-12-11T01:17:59.856Z,2.30
2018-12-11T01:20:06.892Z,3.00
2018-12-11T01:22:13.047Z,2.63
2018-12-11T01:24:19.225Z,2.47
2018-12-11T01:26:25.421Z,2.33
2018-12-11T01:28:31.703Z,2.57
2018-12-11T01:30:37.790Z,2.73
2018-12-11T01:35:03.548Z,3.00
2018-12-11T01:37:12.168Z,3.20
2018-12-11T01:39:34.100Z,3.00
2018-12-11T01:41:47.014Z,2.63
2018-12-11T01:43:53.119Z,2.40
2018-12-11T01:45:59.267Z,2.50
2018-12-11T01:48:06.283Z,2.77
2018-12-11T01:50:12.360Z,3.03
2018-12-11T01:52:18.898Z,2.80
2018-12-11T01:54:27.329Z,3.03
2018-12-11T01:56:34.845Z,3.10
2018-12-11T01:58:41.262Z,2.97
2018-12-11T02:00:47.514Z,3.90
2018-12-11T02:02:53.605Z,3.03
2018-12-11T02:04:59.815Z,3.00
2018-12-11T02:07:06.987Z,2.90
2018-12-11T02:09:13.647Z,3.00
2018-12-11T02:11:20.085Z,2.80
2018-12-11T02:13:26.162Z,3.53
2018-12-11T02:15:32.617Z,3.30
2018-12-11T02:17:38.786Z,3.50
2018-12-11T02:19:45.577Z,2.90
2018-12-11T02:21:51.842Z,3.50
2018-12-11T02:23:58.709Z,2.93
2018-12-11T02:26:04.771Z,3.27
2018-12-11T02:28:10.922Z,2.93
2018-12-11T02:30:19.328Z,3.10
2018-12-11T02:32:25.928Z,3.10
2018-12-11T02:34:32.079Z,3.10
2018-12-11T02:36:38.161Z,2.60
2018-12-11T02:38:44.896Z,3.17
2018-12-11T02:40:51.048Z,2.60
2018-12-11T02:42:57.172Z,3.00
2018-12-11T02:45:04.022Z,2.70
2018-12-11T02:47:10.379Z,3.17
2018-12-11T02:49:17.511Z,3.60
2018-12-11T02:51:24.017Z,2.80
2018-12-11T02:53:30.147Z,2.70
2018-12-11T02:55:36.628Z,2.47
2018-12-11T02:57:42.780Z,2.43
2018-12-11T02:59:49.900Z,2.70
2018-12-11T03:01:57.027Z,2.80
2018-12-11T03:04:03.297Z,2.90
2018-12-11T03:06:09.460Z,2.57
2018-12-11T03:08:15.670Z,2.70
2018-12-11T03:10:23.303Z,3.33
2018-12-11T03:12:29.448Z,2.40
2018-12-11T03:14:35.542Z,2.47
2018-12-11T03:16:41.688Z,3.03
2018-12-11T03:18:47.833Z,2.20
2018-12-11T03:20:53.961Z,2.23
2018-12-11T03:23:00.509Z,2.20
2018-12-11T03:25:06.923Z,2.80
2018-12-11T03:27:13.896Z,2.10
2018-12-11T03:29:20.781Z,2.20
2018-12-11T03:31:27.683Z,2.67
2018-12-11T03:33:33.973Z,2.20
2018-12-11T03:35:40.578Z,2.07
2018-12-11T03:37:46.710Z,2.27
2018-12-11T03:39:52.804Z,2.40
2018-12-11T03:41:59.396Z,3.30
2018-12-11T03:44:06.002Z,2.23
2018-12-11T03:46:12.215Z,2.57
2018-12-11T03:48:18.471Z,2.40
2018-12-11T03:50:24.818Z,2.37
2018-12-11T03:52:31.189Z,2.77
2018-12-11T03:54:37.609Z,2.70
2018-12-11T03:56:44.924Z,2.20
2018-12-11T03:58:51.075Z,2.13
2018-12-11T04:00:57.235Z,2.63
2018-12-11T04:03:04.013Z,3.10
2018-12-11T04:05:10.223Z,2.60
2018-12-11T04:07:16.447Z,2.17
2018-12-11T04:09:22.614Z,2.27
2018-12-11T04:11:28.868Z,2.17
2018-12-11T04:13:35.134Z,2.40
2018-12-11T04:15:42.376Z,2.30
2018-12-11T04:17:49.651Z,2.77
2018-12-11T04:19:56.337Z,2.23
2018-12-11T04:22:03.187Z,2.60
2018-12-11T04:24:09.428Z,2.20
2018-12-11T04:26:17.680Z,2.13
2018-12-11T04:28:24.777Z,2.50
2018-12-11T04:30:30.854Z,2.53
2018-12-11T04:32:36.992Z,2.40
2018-12-11T04:37:00.364Z,2.63
2018-12-11T04:39:08.118Z,2.33
2018-12-11T04:41:14.247Z,2.20
2018-12-11T04:43:20.387Z,2.13
2018-12-11T04:45:26.651Z,3.00
2018-12-11T04:47:32.732Z,2.83
2018-12-11T04:49:40.279Z,2.90
2018-12-11T04:51:46.476Z,2.37
2018-12-11T04:53:52.778Z,2.50
2018-12-11T04:55:59.260Z,2.40
2018-12-11T04:58:05.776Z,2.70
2018-12-11T05:00:12.246Z,2.40
2018-12-11T05:02:18.314Z,3.60
2018-12-11T05:04:24.409Z,4.80
2018-12-11T05:06:30.490Z,4.93
2018-12-11T05:08:36.666Z,6.17
2018-12-11T05:10:43.021Z,4.60
2018-12-11T05:12:56.218Z,3.50
2018-12-11T05:15:02.283Z,2.90
2018-12-11T05:17:08.466Z,2.80
2018-12-11T05:19:14.626Z,2.50
2018-12-11T05:21:21.056Z,3.00
2018-12-11T05:23:27.099Z,2.80
2018-12-11T05:25:33.265Z,3.50
2018-12-11T05:27:39.829Z,3.10
2018-12-11T05:29:48.602Z,2.60
2018-12-11T05:31:56.105Z,3.07
2018-12-11T05:34:02.322Z,3.70
2018-12-11T05:36:08.602Z,3.03
2018-12-11T05:40:31.017Z,3.30
2018-12-11T05:42:37.107Z,3.97
2018-12-11T05:44:43.195Z,3.80
2018-12-11T05:46:49.428Z,3.53
2018-12-11T05:48:56.475Z,3.80
2018-12-11T05:51:03.148Z,3.30
2018-12-11T05:53:09.274Z,3.57
2018-12-11T05:55:15.478Z,3.87
2018-12-11T05:57:21.643Z,3.43
2018-12-11T05:59:31.375Z,3.90
2018-12-11T06:01:37.498Z,4.07
2018-12-11T06:03:43.672Z,4.10
2018-12-11T06:05:50.437Z,4.17
2018-12-11T06:07:56.526Z,3.90
2018-12-11T06:10:02.643Z,3.00
2018-12-11T06:12:08.822Z,3.37
2018-12-11T06:14:14.947Z,2.87
2018-12-11T06:16:21.589Z,4.00
2018-12-11T06:18:27.717Z,3.03
2018-12-11T06:20:34.552Z,3.37
2018-12-11T06:22:41.535Z,3.80
2018-12-11T06:24:47.655Z,3.33
2018-12-11T06:26:54.526Z,2.77
2018-12-11T06:29:00.768Z,3.73
2018-12-11T06:31:06.881Z,3.67
2018-12-11T06:33:14.202Z,3.13
2018-12-11T06:35:20.333Z,3.27
2018-12-11T06:37:26.553Z,3.40
2018-12-11T06:39:32.633Z,3.17
2018-12-11T06:41:38.813Z,3.37
2018-12-11T06:43:45.280Z,3.40
2018-12-11T06:45:51.382Z,3.00
2018-12-11T06:47:57.502Z,4.10
2018-12-11T06:50:03.675Z,4.23
2018-12-11T06:52:09.812Z,3.97
2018-12-11T06:54:15.957Z,4.77
2018-12-11T06:56:22.172Z,3.30
2018-12-11T06:58:28.328Z,3.30
2018-12-11T07:00:42.589Z,4.03
2018-12-11T07:02:48.964Z,3.50
2018-12-11T07:07:11.540Z,3.80
2018-12-11T07:09:18.569Z,3.17
2018-12-11T07:11:25.329Z,4.00
2018-12-11T07:13:32.138Z,5.07
2018-12-11T07:15:38.327Z,5.50
2018-12-11T07:17:44.573Z,7.80
2018-12-11T07:19:50.818Z,6.43
2018-12-11T07:21:57.544Z,4.73
2018-12-11T07:24:03.690Z,4.70
2018-12-11T07:26:10.036Z,4.40
2018-12-11T07:28:16.222Z,3.80
2018-12-11T07:30:22.362Z,3.90
2018-12-11T07:32:31.000Z,4.50
2018-12-11T07:34:37.243Z,4.13
2018-12-11T07:36:43.442Z,3.90
2018-12-11T07:38:49.521Z,3.43
2018-12-11T07:40:56.018Z,4.00
2018-12-11T07:43:02.119Z,4.17
2018-12-11T07:45:08.329Z,3.30
2018-12-11T07:47:14.508Z,3.43
2018-12-11T07:49:20.579Z,3.50
2018-12-11T07:51:26.741Z,4.00
2018-12-11T07:53:32.804Z,4.40
2018-12-11T07:55:39.102Z,4.10
2018-12-11T07:57:45.655Z,4.50
2018-12-11T07:59:52.659Z,3.93
2018-12-11T08:01:59.542Z,3.57
2018-12-11T08:04:05.985Z,3.27
2018-12-11T08:06:12.272Z,3.80
2018-12-11T08:08:19.606Z,4.50
2018-12-11T08:10:25.734Z,4.20
2018-12-11T08:12:32.047Z,4.00
2018-12-11T08:14:38.275Z,4.20
2018-12-11T08:16:46.441Z,4.30
2018-12-11T08:18:53.423Z,3.90
2018-12-11T08:21:00.402Z,4.10
2018-12-11T08:23:31.524Z,3.60
2018-12-11T08:25:40.892Z,3.80
2018-12-11T08:27:47.130Z,3.40
2018-12-11T08:30:00.049Z,3.87
2018-12-11T08:32:13.508Z,4.80
2018-12-11T08:34:22.113Z,4.20
2018-12-11T08:36:41.735Z,3.97
2018-12-11T08:38:55.939Z,3.80
2018-12-11T08:41:02.486Z,3.63
2018-12-11T08:43:11.944Z,3.50
2018-12-11T08:45:29.307Z,3.77
2018-12-11T08:47:35.987Z,3.60
2018-12-11T08:49:47.275Z,3.40
2018-12-11T08:51:57.767Z,3.40
2018-12-11T08:54:07.069Z,3.60
2018-12-11T08:56:14.683Z,3.27
2018-12-11T08:58:20.949Z,3.60
2018-12-11T09:02:55.765Z,4.23
2018-12-11T09:05:05.725Z,3.97
2018-12-11T09:07:12.563Z,3.83
2018-12-11T09:09:18.779Z,3.60
2018-12-11T09:11:25.139Z,4.03
2018-12-11T09:13:31.562Z,3.43
2018-12-11T09:15:41.881Z,3.60
2018-12-11T09:17:51.504Z,3.70
2018-12-11T09:19:57.840Z,3.73
2018-12-11T09:22:04.001Z,3.37
2018-12-11T09:24:16.467Z,4.17
2018-12-11T09:26:26.622Z,3.97
2018-12-11T09:28:33.349Z,3.40
2018-12-11T09:30:39.657Z,3.40
2018-12-11T09:32:46.637Z,3.60
2018-12-11T09:34:59.494Z,3.30
2018-12-11T09:37:05.737Z,3.90
2018-12-11T09:39:12.484Z,4.03
2018-12-11T09:41:58.395Z,3.40
2018-12-11T09:44:21.264Z,3.77
2018-12-11T09:46:28.849Z,3.70
2018-12-11T09:48:35.194Z,3.70
2018-12-11T09:50:45.795Z,3.07
2018-12-11T09:52:54.554Z,3.80
2018-12-11T09:55:02.382Z,3.57
2018-12-11T09:57:08.600Z,4.17
2018-12-11T09:59:23.234Z,3.83
2018-12-11T10:01:27.516Z,3.70
2018-12-11T10:03:34.285Z,3.60
2018-12-11T10:05:41.584Z,4.23
2018-12-11T10:07:47.614Z,4.13
2018-12-11T10:09:53.749Z,4.53
2018-12-11T10:11:59.874Z,4.50
2018-12-11T10:14:06.820Z,4.10
2018-12-11T10:16:12.970Z,4.57
2018-12-11T10:18:19.171Z,4.10
2018-12-11T10:20:25.567Z,5.00
2018-12-11T10:22:32.103Z,4.20
2018-12-11T10:24:38.482Z,3.73
2018-12-11T10:26:45.020Z,3.80
2018-12-11T10:28:51.503Z,3.83
2018-12-11T10:30:57.615Z,4.40
2018-12-11T10:33:03.904Z,3.80
2018-12-11T10:35:10.156Z,4.50
2018-12-11T10:37:16.296Z,4.67
2018-12-11T10:39:22.915Z,6.00
2018-12-11T10:41:59.408Z,5.00
2018-12-11T10:44:28.153Z,4.70
2018-12-11T10:46:36.997Z,4.10
2018-12-11T10:48:43.523Z,4.37
2018-12-11T10:50:49.738Z,5.37
2018-12-11T10:52:56.362Z,4.90
2018-12-11T10:55:02.902Z,4.40
2018-12-11T10:57:09.395Z,4.37
2018-12-11T10:59:15.535Z,5.00
2018-12-11T11:01:26.618Z,4.80
2018-12-11T11:03:32.945Z,4.93
2018-12-11T11:05:39.349Z,4.40
2018-12-11T11:07:45.781Z,4.43
2018-12-11T11:09:51.863Z,4.93
2018-12-11T11:11:58.009Z,5.57
2018-12-11T11:14:04.600Z,4.80
2018-12-11T11:16:15.090Z,5.47
2018-12-11T11:18:21.203Z,5.10
2018-12-11T11:20:28.466Z,4.10
2018-12-11T11:22:34.839Z,3.93
2018-12-11T11:24:40.941Z,4.30
2018-12-11T11:26:47.352Z,4.77
2018-12-11T11:28:54.462Z,4.20
2018-12-11T11:31:00.741Z,4.33
2018-12-11T11:33:07.383Z,4.10
2018-12-11T11:35:13.592Z,4.20
2018-12-11T11:37:19.689Z,4.83
2018-12-11T11:39:25.797Z,4.50
2018-12-11T11:41:54.358Z,4.97
2018-12-11T11:44:22.649Z,5.10
2018-12-11T11:46:28.778Z,4.80
2018-12-11T11:48:34.875Z,5.67
2018-12-11T11:50:41.231Z,7.73
2018-12-11T11:52:48.187Z,7.00
2018-12-11T11:54:54.399Z,5.90
2018-12-11T11:57:02.159Z,4.83
2018-12-11T11:59:31.049Z,5.53
2018-12-11T12:02:00.459Z,5.13
2018-12-11T12:04:08.537Z,4.37
2018-12-11T12:06:14.790Z,5.43
2018-12-11T12:08:21.289Z,5.60
2018-12-11T12:10:29.783Z,4.53
2018-12-11T12:12:36.916Z,6.20
2018-12-11T12:14:48.938Z,6.57
2018-12-11T12:16:51.259Z,5.23
2018-12-11T12:18:57.829Z,4.90
2018-12-11T12:21:04.402Z,5.63
2018-12-11T12:23:10.592Z,5.20
2018-12-11T12:25:17.374Z,5.80
2018-12-11T12:27:23.718Z,5.43
2018-12-11T12:29:29.988Z,4.90
2018-12-11T12:31:36.181Z,5.90
2018-12-11T12:33:42.407Z,6.37
2018-12-11T12:35:48.954Z,6.53
2018-12-11T12:37:55.125Z,5.10
2018-12-11T12:40:01.520Z,5.50
2018-12-11T12:42:08.481Z,4.37
2018-12-11T12:44:14.755Z,5.03
2018-12-11T12:46:20.953Z,5.33
2018-12-11T12:48:27.064Z,5.13
2018-12-11T12:50:34.237Z,5.50
2018-12-11T12:52:41.207Z,5.63
2018-12-11T12:54:47.434Z,5.77
2018-12-11T12:56:53.534Z,5.30
2018-12-11T12:59:22.520Z,6.97
2018-12-11T13:01:51.377Z,5.33
2018-12-11T13:03:57.634Z,6.00
2018-12-11T13:06:05.114Z,5.73
2018-12-11T13:08:11.349Z,6.27
2018-12-11T13:10:18.101Z,5.87
2018-12-11T13:12:24.354Z,6.37
2018-12-11T13:14:30.869Z,5.47
2018-12-11T13:16:37.222Z,4.90
2018-12-11T13:18:44.139Z,4.73
2018-12-11T13:20:50.398Z,6.10
2018-12-11T13:22:56.570Z,6.70
2018-12-11T13:25:03.075Z,5.80
2018-12-11T13:27:09.302Z,5.83
2018-12-11T13:29:15.626Z,5.80
2018-12-11T13:31:21.939Z,5.30
2018-12-11T13:33:28.154Z,6.60
2018-12-11T13:35:34.888Z,5.60
2018-12-11T13:37:41.197Z,6.23
2018-12-11T13:39:47.471Z,6.73
2018-12-11T13:41:53.909Z,6.30
2018-12-11T13:44:00.871Z,5.67
2018-12-11T13:46:06.990Z,5.97
2018-12-11T13:48:13.397Z,5.80
2018-12-11T13:50:19.622Z,5.70
2018-12-11T13:52:25.962Z,4.80
2018-12-11T13:54:32.963Z,6.17
2018-12-11T13:56:39.857Z,6.40
2018-12-11T13:58:46.178Z,6.80
2018-12-11T14:00:52.335Z,6.47
2018-12-11T14:02:58.629Z,6.23
2018-12-11T14:05:05.223Z,6.00
2018-12-11T14:07:11.807Z,5.30
2018-12-11T14:09:23.061Z,5.33
2018-12-11T14:11:29.606Z,6.07
2018-12-11T14:13:36.160Z,6.33
2018-12-11T14:15:42.347Z,4.57
2018-12-11T14:17:48.961Z,5.70
2018-12-11T14:19:55.250Z,5.67
2018-12-11T14:22:01.596Z,7.20
2018-12-11T14:24:07.797Z,6.10
2018-12-11T14:26:14.212Z,5.43
2018-12-11T14:28:21.364Z,6.37
2018-12-11T14:30:27.634Z,5.50
2018-12-11T14:32:34.070Z,6.93
2018-12-11T14:34:41.754Z,6.30
2018-12-11T14:37:10.714Z,6.40
2018-12-11T14:39:40.023Z,5.50
2018-12-11T14:41:46.228Z,6.50
2018-12-11T14:43:52.437Z,6.30
2018-12-11T14:45:58.855Z,6.33
2018-12-11T14:48:05.251Z,7.43
2018-12-11T14:50:11.527Z,6.90
2018-12-11T14:52:18.217Z,7.00
2018-12-11T14:54:24.398Z,6.50
2018-12-11T14:56:30.617Z,5.97
2018-12-11T14:58:36.781Z,6.17
2018-12-11T15:00:43.038Z,5.60
2018-12-11T15:02:49.671Z,6.50
2018-12-11T15:04:57.222Z,5.70
2018-12-11T15:07:03.490Z,6.17
2018-12-11T15:09:15.651Z,6.77
2018-12-11T15:11:22.594Z,6.50
2018-12-11T15:13:28.787Z,6.43
2018-12-11T15:15:35.053Z,6.00
2018-12-11T15:17:41.811Z,6.03
2018-12-11T15:19:48.137Z,5.97
2018-12-11T15:21:54.268Z,6.77
2018-12-11T15:24:00.557Z,6.20
2018-12-11T15:26:06.642Z,6.10
2018-12-11T15:28:12.738Z,7.10
2018-12-11T15:30:19.302Z,7.23
2018-12-11T15:32:25.819Z,7.40
2018-12-11T15:34:31.931Z,6.80
2018-12-11T15:36:38.474Z,6.37
2018-12-11T15:38:44.776Z,6.27
2018-12-11T15:40:51.149Z,7.27
2018-12-11T15:43:20.121Z,6.60
2018-12-11T15:45:49.254Z,7.27
2018-12-11T15:47:55.422Z,6.17
2018-12-11T15:50:01.583Z,7.47
2018-12-11T15:52:07.764Z,7.07
2018-12-11T15:54:13.964Z,7.40
2018-12-11T15:56:20.273Z,7.77
2018-12-11T15:58:26.503Z,7.37
2018-12-11T16:00:32.666Z,7.30
2018-12-11T16:02:39.276Z,7.30
2018-12-11T16:04:45.520Z,8.43
2018-12-11T16:06:51.814Z,7.10
2018-12-11T16:08:58.082Z,7.40
2018-12-11T16:11:04.277Z,7.63
2018-12-11T16:13:10.461Z,6.87
2018-12-11T16:15:16.613Z,7.80
2018-12-11T16:17:22.886Z,8.30
2018-12-11T16:19:29.572Z,7.27
2018-12-11T16:21:36.036Z,8.17
2018-12-11T16:23:42.514Z,7.33
2018-12-11T16:25:48.771Z,7.00
2018-12-11T16:27:55.010Z,7.43
2018-12-11T16:30:01.797Z,6.40
2018-12-11T16:34:25.812Z,6.50
2018-12-11T16:36:32.067Z,7.07
2018-12-11T16:38:38.479Z,6.60
2018-12-11T16:40:45.171Z,6.60
2018-12-11T16:43:14.279Z,8.57
2018-12-11T16:45:42.544Z,7.30
2018-12-11T16:47:49.166Z,8.50
2018-12-11T16:49:55.420Z,8.50
2018-12-11T16:52:01.759Z,8.13
2018-12-11T16:54:07.978Z,9.13
2018-12-11T16:56:14.694Z,8.40
2018-12-11T16:58:21.093Z,9.13
2018-12-11T17:00:49.579Z,8.10
2018-12-11T17:03:18.112Z,7.90
2018-12-11T17:05:25.051Z,7.40
2018-12-11T17:07:32.365Z,7.40
2018-12-11T17:09:42.271Z,7.87
2018-12-11T17:11:48.974Z,8.07
2018-12-11T17:13:55.256Z,8.27
2018-12-11T17:16:01.532Z,9.67
2018-12-11T17:18:08.231Z,9.53
2018-12-11T17:20:14.524Z,8.13
2018-12-11T17:22:20.635Z,7.40
2018-12-11T17:24:26.839Z,7.23
2018-12-11T17:26:32.973Z,8.03
2018-12-11T17:28:39.531Z,9.97
2018-12-11T17:30:46.048Z,8.37
2018-12-11T17:32:52.310Z,7.30
2018-12-11T17:34:58.462Z,6.70
2018-12-11T17:37:04.765Z,5.90
2018-12-11T17:39:10.944Z,6.50
2018-12-11T17:41:17.203Z,6.60
2018-12-11T17:43:23.658Z,6.30
2018-12-11T17:45:29.812Z,6.70
2018-12-11T17:47:36.186Z,6.63
2018-12-11T17:49:43.783Z,6.57
2018-12-11T17:51:50.021Z,6.43
2018-12-11T17:53:56.394Z,7.43
2018-12-11T17:56:02.708Z,7.43
2018-12-11T17:58:10.007Z,8.93
2018-12-11T18:02:38.571Z,8.73
2018-12-11T18:05:14.864Z,8.17
2018-12-11T18:07:43.354Z,7.27
2018-12-11T18:09:49.645Z,7.15
2018-12-11T18:11:55.978Z,6.13
2018-12-11T18:14:02.568Z,7.43
2018-12-11T18:16:10.772Z,7.10
2018-12-11T18:18:17.036Z,7.60
2018-12-11T18:20:23.654Z,5.90
2018-12-11T18:22:29.829Z,5.90
2018-12-11T18:24:35.945Z,5.37
2018-12-11T18:26:42.180Z,5.70
2018-12-11T18:28:48.441Z,5.37
2018-12-11T18:33:28.198Z,6.33
2018-12-11T18:35:34.549Z,5.43
2018-12-11T18:37:41.403Z,6.07
2018-12-11T18:39:47.705Z,5.78
2018-12-11T18:42:16.153Z,5.28
2018-12-11T18:44:45.506Z,6.43
2018-12-11T18:46:52.393Z,6.03
2018-12-11T18:48:58.918Z,7.10
2018-12-11T18:51:06.122Z,6.67
2018-12-11T18:53:13.241Z,7.43
2018-12-11T18:55:19.555Z,6.87
2018-12-11T18:57:25.928Z,7.50
2018-12-11T18:59:32.277Z,6.80
2018-12-11T19:01:41.667Z,7.25
2018-12-11T19:04:09.797Z,7.30
2018-12-11T19:06:39.038Z,6.20
2018-12-11T19:08:45.377Z,6.03
2018-12-11T19:10:52.817Z,7.00
2018-12-11T19:13:01.279Z,8.00
2018-12-11T19:15:08.004Z,7.37
2018-12-11T19:17:14.483Z,7.20
2018-12-11T19:19:20.878Z,7.75
2018-12-11T19:21:27.292Z,7.60
2018-12-11T19:23:45.803Z,8.23
2018-12-11T19:25:52.343Z,7.40
2018-12-11T19:27:58.668Z,8.20
2018-12-11T19:30:05.981Z,8.60
2018-12-11T19:32:14.323Z,9.07
2018-12-11T19:36:55.713Z,8.00
2018-12-11T19:39:07.553Z,7.60
2018-12-11T19:43:42.519Z,7.97
2018-12-11T19:45:58.837Z,7.67
2018-12-11T19:48:08.400Z,7.17
2018-12-11T19:50:17.896Z,8.40
2018-12-11T19:52:27.632Z,8.00
2018-12-11T19:54:38.332Z,7.60
2018-12-11T19:59:20.333Z,6.93
2018-12-11T20:01:29.211Z,7.60
2018-12-11T20:04:01.885Z,7.17
2018-12-11T20:06:34.897Z,7.90
2018-12-11T20:08:42.908Z,8.93
2018-12-11T20:10:54.402Z,8.57
2018-12-11T20:13:02.158Z,7.23
2018-12-11T20:15:11.052Z,7.03
2018-12-11T20:20:02.264Z,7.60
2018-12-11T20:22:11.175Z,7.67
2018-12-11T20:24:37.483Z,9.60
2018-12-11T20:26:57.968Z,8.55
2018-12-11T20:29:11.975Z,9.60
2018-12-11T20:31:19.903Z,8.13
2018-12-11T20:33:28.509Z,8.30
2018-12-11T20:35:39.320Z,8.10
2018-12-11T20:37:48.453Z,7.73
2018-12-11T20:39:55.162Z,8.30
2018-12-11T20:42:01.855Z,8.33
2018-12-11T20:44:08.258Z,7.50
2018-12-11T20:46:14.624Z,7.50
2018-12-11T20:48:21.864Z,8.50
2018-12-11T20:50:29.233Z,7.78
2018-12-11T20:52:36.127Z,8.90
2018-12-11T20:54:42.379Z,7.07
2018-12-11T20:56:50.844Z,7.07
2018-12-11T20:59:19.779Z,7.17
2018-12-11T21:01:48.112Z,7.17
2018-12-11T21:03:54.291Z,6.53
2018-12-11T21:06:00.458Z,7.70
2018-12-11T21:08:07.081Z,6.90
2018-12-11T21:10:13.666Z,6.90
2018-12-11T21:12:20.122Z,7.27
2018-12-11T21:14:26.287Z,6.47
2018-12-11T21:16:32.761Z,7.17
2018-12-11T21:18:39.444Z,7.00
2018-12-11T21:20:45.639Z,7.58
2018-12-11T21:22:51.977Z,7.90
2018-12-11T21:27:17.420Z,7.80
2018-12-11T21:29:24.433Z,8.30
2018-12-11T21:31:30.631Z,8.40
2018-12-11T21:35:54.886Z,8.87
2018-12-11T21:38:01.939Z,9.40
2018-12-11T21:40:08.787Z,9.00
2018-12-11T21:42:15.184Z,9.30
2018-12-11T21:44:21.508Z,8.50
2018-12-11T21:46:27.993Z,9.53
2018-12-11T21:48:34.530Z,7.53
2018-12-11T21:50:40.828Z,8.10
2018-12-11T21:52:47.141Z,7.70
2018-12-11T21:54:53.335Z,8.15
2018-12-11T21:57:00.174Z,9.20
2018-12-11T21:59:06.446Z,8.20
2018-12-11T22:01:12.637Z,9.63
2018-12-11T22:05:36.317Z,8.30
2018-12-11T22:07:43.774Z,8.47
2018-12-11T22:09:50.305Z,8.53
2018-12-11T22:11:56.787Z,8.30
2018-12-11T22:14:03.502Z,9.37
2018-12-11T22:16:10.415Z,8.80
2018-12-11T22:18:17.192Z,9.30
2018-12-11T22:20:23.399Z,9.20
2018-12-11T22:22:30.486Z,8.20
2018-12-11T22:24:58.773Z,9.67
2018-12-11T22:27:27.834Z,8.47
2018-12-11T22:29:33.929Z,8.63
2018-12-11T22:31:40.051Z,9.40
2018-12-11T22:33:46.366Z,11.00
2018-12-11T22:35:52.550Z,10.03
2018-12-11T22:37:59.668Z,9.10
2018-12-11T22:40:06.762Z,9.43
2018-12-11T22:42:13.167Z,10.20
2018-12-11T22:44:19.361Z,10.43
2018-12-11T22:46:25.565Z,9.57
2018-12-11T22:48:36.794Z,9.17
2018-12-11T22:50:44.021Z,9.78
2018-12-11T22:52:50.270Z,9.23
2018-12-11T22:54:56.717Z,10.15
2018-12-11T22:57:03.606Z,9.27
2018-12-11T22:59:09.843Z,9.47
2018-12-11T23:01:16.389Z,10.20
2018-12-11T23:03:22.471Z,9.83
2018-12-11T23:05:51.101Z,10.60
2018-12-11T23:08:20.267Z,9.83
2018-12-11T23:10:26.468Z,9.27
2018-12-11T23:12:33.037Z,10.17
2018-12-11T23:14:39.571Z,10.28
2018-12-11T23:16:46.115Z,9.10
2018-12-11T23:18:52.947Z,9.60
2018-12-11T23:20:59.231Z,10.20
2018-12-11T23:23:05.596Z,9.23
2018-12-11T23:25:11.785Z,9.60
2018-12-11T23:27:24.633Z,9.53
2018-12-11T23:29:30.704Z,10.40
2018-12-11T23:31:37.328Z,9.03
2018-12-11T23:33:44.773Z,10.78
2018-12-11T23:35:50.886Z,9.17
2018-12-11T23:37:56.989Z,9.40
2018-12-11T23:40:03.477Z,8.60
2018-12-11T23:42:09.808Z,10.17
2018-12-11T23:44:16.882Z,10.50
2018-12-11T23:46:22.996Z,9.80
2018-12-11T23:48:29.660Z,10.70
2018-12-11T23:50:35.818Z,10.53
2018-12-11T23:52:42.067Z,9.40
2018-12-11T23:54:48.168Z,10.60
2018-12-11T23:56:54.237Z,10.20
2018-12-11T23:59:03.190Z,10.33
